MMZC/ZCL METAR and TAF weather

Enter ICAO airport designator
Station Type Date Time Source
MMZC METAR 2019/06/26 17:47 UTC NOAA

MMZC 261747Z 36010KT 10SM SCT030 24/13 A3029 RMK 8/100 HZY


Station Type Date Time Source
MMZC Decoded METAR 2019/06/26 17:47 UTC NOAA

Zacatecas Airport, Mexico (MMZC) 22-54N 102-41W
Jun 26, 2019 - 01:47 PM EDT / 2019.06.26 1747 UTC
Wind: from the N (360 degrees) at 12 MPH (10 KT):0
Visibility: 10 mile(s):0
Sky conditions: partly cloudy
Temperature: 75 F (24 C)
Dew Point: 55 F (13 C)
Relative Humidity: 50%
Pressure (altimeter): 30.29 in. Hg (1025 hPa)
ob: MMZC 261747Z 36010KT 10SM SCT030 24/13 A3029 RMK 8/100 HZY
cycle: 18

Station Type Date Time Source
MMZC TAF 2019/06/26 18:33 UTC NOAA

TAF MMZC 261730Z 2618/2724 07008KT P6SM SCT030 TX28/2622Z TN14/2712Z
BECMG 2620/2621 09015KT BKN030
FM270200 12012KT P6SM SCT030
BECMG 2705/2706 12005KT SCT090
FM271600 12012KT P6SM SCT030
BECMG 2720/2721 12015G25KT

Example: see airport list